CheckWX is a tool to help pilots better visualize weather data.  It is not intended as a substitute for an official pre-flight weather briefing.

02:55:05 UTC

KMVL METAR
Morrisville-Stowe State Airport
Morrisville, Vermont, USA
Current

1 hour ago

KMVL 240154Z AUTO VRB03KT 9SM CLR M07/M09 A2996 RMK AO2 SLP161 T10671094 $
Observed
Mar-24 @ 01:54 UTC
Wind
  • Variable at 3 KTS
Visibility
9 SM
Flight Rules
VFR
Cloud Levels
  • Clear skies
Temperature
-7°C / 19°F
Dewpoint
-9°C / 16°F
Humidity
86%
Altimeter
29.96" Hg
Pressure
1016.1 hPa
Previous

2 hours ago

KMVL 240054Z AUTO 00000KT 10SM CLR M07/M08 A2996 RMK AO2 SLP158 T10671083 $
Observed
Mar-24 @ 00:54 UTC
Visibility
10 SM
Flight Rules
VFR
Cloud Levels
  • Clear skies
Temperature
-7°C / 19°F
Dewpoint
-8°C / 18°F
Humidity
93%
Altimeter
29.96" Hg
Pressure
1015.8 hPa
Previous

3 hours ago

KMVL 232354Z AUTO 00000KT 10SM CLR M05/M08 A2993 RMK AO2 SLP148 T10501083 11011 21056 51032
Observed
Mar-23 @ 23:54 UTC
Visibility
10 SM
Flight Rules
VFR
Cloud Levels
  • Clear skies
Temperature
-5°C / 23°F
Dewpoint
-8°C / 18°F
Humidity
80%
Altimeter
29.93" Hg
Pressure
1014.8 hPa